sensor_id;sensor_type;location;lat;lon;timestamp;P1;durP1;ratioP1;P2;durP2;ratioP2
67528;SDS011;54366;51.980;5.856;2023-02-15T00:01:51;28.33;;;21.73;;
67528;SDS011;54366;51.980;5.856;2023-02-15T00:04:19;25.70;;;20.23;;
67528;SDS011;54366;51.980;5.856;2023-02-15T00:06:47;32.28;;;24.63;;
67528;SDS011;54366;51.980;5.856;2023-02-15T00:09:13;33.42;;;25.00;;
67528;SDS011;54366;51.980;5.856;2023-02-15T00:11:40;31.10;;;24.08;;
67528;SDS011;54366;51.980;5.856;2023-02-15T00:14:18;32.03;;;23.58;;
67528;SDS011;54366;51.980;5.856;2023-02-15T00:16:46;31.75;;;23.05;;
67528;SDS011;54366;51.980;5.856;2023-02-15T00:19:15;32.53;;;24.45;;
67528;SDS011;54366;51.980;5.856;2023-02-15T00:21:42;34.28;;;25.17;;
67528;SDS011;54366;51.980;5.856;2023-02-15T00:24:09;30.98;;;23.15;;
67528;SDS011;54366;51.980;5.856;2023-02-15T00:26:38;32.58;;;24.42;;
67528;SDS011;54366;51.980;5.856;2023-02-15T00:29:06;34.60;;;25.02;;
67528;SDS011;54366;51.980;5.856;2023-02-15T00:31:33;32.85;;;23.92;;
67528;SDS011;54366;51.980;5.856;2023-02-15T00:34:10;35.42;;;25.17;;
67528;SDS011;54366;51.980;5.856;2023-02-15T00:36:39;36.95;;;25.55;;
67528;SDS011;54366;51.980;5.856;2023-02-15T00:39:05;34.28;;;25.17;;
67528;SDS011;54366;51.980;5.856;2023-02-15T00:41:34;32.88;;;24.63;;
67528;SDS011;54366;51.980;5.856;2023-02-15T00:44:01;32.17;;;23.58;;
67528;SDS011;54366;51.980;5.856;2023-02-15T00:46:29;30.75;;;22.40;;
67528;SDS011;54366;51.980;5.856;2023-02-15T00:48:55;31.33;;;22.98;;
67528;SDS011;54366;51.980;5.856;2023-02-15T00:51:22;32.80;;;23.35;;
67528;SDS011;54366;51.980;5.856;2023-02-15T00:53:48;33.50;;;24.83;;
67528;SDS011;54366;51.980;5.856;2023-02-15T00:56:15;31.83;;;25.20;;
67528;SDS011;54366;51.980;5.856;2023-02-15T00:58:41;30.13;;;22.52;;
67528;SDS011;54366;51.980;5.856;2023-02-15T01:01:12;32.80;;;24.13;;
67528;SDS011;54366;51.980;5.856;2023-02-15T01:03:41;28.42;;;21.30;;
67528;SDS011;54366;51.980;5.856;2023-02-15T01:06:08;29.55;;;21.65;;
67528;SDS011;54366;51.980;5.856;2023-02-15T01:08:36;35.38;;;24.65;;
67528;SDS011;54366;51.980;5.856;2023-02-15T01:11:06;32.40;;;23.58;;
67528;SDS011;54366;51.980;5.856;2023-02-15T01:13:34;38.13;;;27.08;;
67528;SDS011;54366;51.980;5.856;2023-02-15T01:16:01;37.58;;;27.75;;
67528;SDS011;54366;51.980;5.856;2023-02-15T01:18:29;41.13;;;29.83;;
67528;SDS011;54366;51.980;5.856;2023-02-15T01:20:55;36.75;;;27.15;;
67528;SDS011;54366;51.980;5.856;2023-02-15T01:23:21;32.58;;;24.70;;
67528;SDS011;54366;51.980;5.856;2023-02-15T01:25:48;34.20;;;23.70;;
67528;SDS011;54366;51.980;5.856;2023-02-15T01:28:15;33.00;;;23.92;;
67528;SDS011;54366;51.980;5.856;2023-02-15T01:30:41;30.95;;;22.23;;
67528;SDS011;54366;51.980;5.856;2023-02-15T01:33:08;29.70;;;23.20;;
67528;SDS011;54366;51.980;5.856;2023-02-15T01:35:43;32.90;;;24.63;;
67528;SDS011;54366;51.980;5.856;2023-02-15T01:38:11;33.90;;;25.25;;
67528;SDS011;54366;51.980;5.856;2023-02-15T01:40:39;32.75;;;24.30;;
67528;SDS011;54366;51.980;5.856;2023-02-15T01:43:08;33.75;;;24.52;;
67528;SDS011;54366;51.980;5.856;2023-02-15T01:45:37;32.20;;;23.70;;
67528;SDS011;54366;51.980;5.856;2023-02-15T01:48:08;33.90;;;24.63;;
67528;SDS011;54366;51.980;5.856;2023-02-15T01:50:57;34.28;;;24.35;;
67528;SDS011;54366;51.980;5.856;2023-02-15T01:53:31;33.97;;;24.02;;
67528;SDS011;54366;51.980;5.856;2023-02-15T01:56:27;31.40;;;23.45;;
67528;SDS011;54366;51.980;5.856;2023-02-15T01:58:56;33.20;;;24.05;;
67528;SDS011;54366;51.980;5.856;2023-02-15T02:01:28;30.55;;;22.80;;
67528;SDS011;54366;51.980;5.856;2023-02-15T02:04:21;31.02;;;23.08;;
67528;SDS011;54366;51.980;5.856;2023-02-15T02:06:47;34.35;;;23.48;;
67528;SDS011;54366;51.980;5.856;2023-02-15T02:09:15;32.40;;;24.23;;
67528;SDS011;54366;51.980;5.856;2023-02-15T02:11:42;32.15;;;24.38;;
67528;SDS011;54366;51.980;5.856;2023-02-15T02:14:13;29.85;;;23.23;;
67528;SDS011;54366;51.980;5.856;2023-02-15T02:20:25;32.70;;;24.58;;
67528;SDS011;54366;51.980;5.856;2023-02-15T02:22:49;30.30;;;23.17;;
67528;SDS011;54366;51.980;5.856;2023-02-15T02:29:20;34.47;;;25.40;;
67528;SDS011;54366;51.980;5.856;2023-02-15T02:32:33;33.08;;;24.02;;
67528;SDS011;54366;51.980;5.856;2023-02-15T02:35:39;32.00;;;24.13;;
67528;SDS011;54366;51.980;5.856;2023-02-15T02:38:44;31.80;;;23.85;;
67528;SDS011;54366;51.980;5.856;2023-02-15T02:41:30;30.35;;;23.08;;
67528;SDS011;54366;51.980;5.856;2023-02-15T02:44:12;31.23;;;23.88;;
67528;SDS011;54366;51.980;5.856;2023-02-15T02:47:02;30.05;;;23.70;;
67528;SDS011;54366;51.980;5.856;2023-02-15T02:49:38;30.08;;;23.33;;
67528;SDS011;54366;51.980;5.856;2023-02-15T02:52:31;32.20;;;23.25;;
67528;SDS011;54366;51.980;5.856;2023-02-15T02:58:03;31.65;;;24.20;;
67528;SDS011;54366;51.980;5.856;2023-02-15T03:00:31;30.20;;;23.10;;
67528;SDS011;54366;51.980;5.856;2023-02-15T03:06:06;29.40;;;22.23;;
67528;SDS011;54366;51.980;5.856;2023-02-15T03:08:45;30.42;;;22.80;;
67528;SDS011;54366;51.980;5.856;2023-02-15T03:11:16;28.83;;;22.08;;
67528;SDS011;54366;51.980;5.856;2023-02-15T03:13:43;27.40;;;20.55;;
67528;SDS011;54366;51.980;5.856;2023-02-15T03:16:12;28.55;;;22.33;;
67528;SDS011;54366;51.980;5.856;2023-02-15T03:19:00;30.55;;;23.38;;
67528;SDS011;54366;51.980;5.856;2023-02-15T03:21:38;28.90;;;21.88;;
67528;SDS011;54366;51.980;5.856;2023-02-15T03:24:32;31.08;;;22.83;;
67528;SDS011;54366;51.980;5.856;2023-02-15T03:27:07;30.95;;;23.17;;
67528;SDS011;54366;51.980;5.856;2023-02-15T03:29:44;30.75;;;22.95;;
67528;SDS011;54366;51.980;5.856;2023-02-15T03:32:14;28.45;;;21.85;;
67528;SDS011;54366;51.980;5.856;2023-02-15T03:34:42;31.00;;;22.33;;
67528;SDS011;54366;51.980;5.856;2023-02-15T03:40:26;30.65;;;23.33;;
67528;SDS011;54366;51.980;5.856;2023-02-15T03:46:58;29.63;;;22.85;;
67528;SDS011;54366;51.980;5.856;2023-02-15T03:49:23;28.98;;;21.98;;
67528;SDS011;54366;51.980;5.856;2023-02-15T03:51:54;32.65;;;24.70;;
67528;SDS011;54366;51.980;5.856;2023-02-15T03:54:28;29.90;;;22.15;;
67528;SDS011;54366;51.980;5.856;2023-02-15T04:00:18;32.85;;;23.15;;
67528;SDS011;54366;51.980;5.856;2023-02-15T04:03:11;29.15;;;22.35;;
67528;SDS011;54366;51.980;5.856;2023-02-15T04:05:47;30.67;;;22.30;;
67528;SDS011;54366;51.980;5.856;2023-02-15T04:08:14;32.13;;;23.55;;
67528;SDS011;54366;51.980;5.856;2023-02-15T04:10:40;30.58;;;22.92;;
67528;SDS011;54366;51.980;5.856;2023-02-15T04:13:19;29.08;;;21.52;;
67528;SDS011;54366;51.980;5.856;2023-02-15T04:15:50;30.40;;;23.02;;
67528;SDS011;54366;51.980;5.856;2023-02-15T04:18:32;31.67;;;22.77;;
67528;SDS011;54366;51.980;5.856;2023-02-15T04:21:22;28.95;;;21.33;;
67528;SDS011;54366;51.980;5.856;2023-02-15T04:24:08;30.42;;;22.40;;
67528;SDS011;54366;51.980;5.856;2023-02-15T04:26:53;30.33;;;22.70;;
67528;SDS011;54366;51.980;5.856;2023-02-15T04:29:20;31.05;;;22.92;;
67528;SDS011;54366;51.980;5.856;2023-02-15T04:31:47;31.40;;;22.17;;
67528;SDS011;54366;51.980;5.856;2023-02-15T04:34:14;28.85;;;22.45;;
67528;SDS011;54366;51.980;5.856;2023-02-15T04:36:41;29.88;;;22.13;;
67528;SDS011;54366;51.980;5.856;2023-02-15T04:39:08;29.02;;;22.45;;
67528;SDS011;54366;51.980;5.856;2023-02-15T04:41:34;31.17;;;22.80;;
67528;SDS011;54366;51.980;5.856;2023-02-15T04:44:01;31.48;;;22.67;;
67528;SDS011;54366;51.980;5.856;2023-02-15T04:46:27;29.95;;;22.10;;
67528;SDS011;54366;51.980;5.856;2023-02-15T04:48:54;29.70;;;21.58;;
67528;SDS011;54366;51.980;5.856;2023-02-15T04:51:22;30.23;;;21.85;;
67528;SDS011;54366;51.980;5.856;2023-02-15T04:53:48;28.70;;;22.23;;
67528;SDS011;54366;51.980;5.856;2023-02-15T04:56:15;26.50;;;21.05;;
67528;SDS011;54366;51.980;5.856;2023-02-15T04:58:41;28.92;;;22.02;;
67528;SDS011;54366;51.980;5.856;2023-02-15T05:01:07;27.42;;;20.90;;
67528;SDS011;54366;51.980;5.856;2023-02-15T05:03:34;28.27;;;21.15;;
67528;SDS011;54366;51.980;5.856;2023-02-15T05:06:00;27.63;;;21.38;;
67528;SDS011;54366;51.980;5.856;2023-02-15T05:08:27;28.35;;;20.95;;
67528;SDS011;54366;51.980;5.856;2023-02-15T05:10:53;29.15;;;21.60;;
67528;SDS011;54366;51.980;5.856;2023-02-15T05:13:20;28.17;;;21.85;;
67528;SDS011;54366;51.980;5.856;2023-02-15T05:15:47;28.77;;;21.23;;
67528;SDS011;54366;51.980;5.856;2023-02-15T05:18:17;27.38;;;21.17;;
67528;SDS011;54366;51.980;5.856;2023-02-15T05:20:45;28.70;;;21.35;;
67528;SDS011;54366;51.980;5.856;2023-02-15T05:23:11;28.45;;;21.55;;
67528;SDS011;54366;51.980;5.856;2023-02-15T05:25:38;26.67;;;20.98;;
67528;SDS011;54366;51.980;5.856;2023-02-15T05:30:50;29.63;;;20.58;;
67528;SDS011;54366;51.980;5.856;2023-02-15T05:33:26;29.65;;;21.38;;
67528;SDS011;54366;51.980;5.856;2023-02-15T05:35:52;30.25;;;21.08;;
67528;SDS011;54366;51.980;5.856;2023-02-15T05:38:19;28.42;;;21.20;;
67528;SDS011;54366;51.980;5.856;2023-02-15T05:40:45;27.10;;;21.02;;
67528;SDS011;54366;51.980;5.856;2023-02-15T05:43:11;25.70;;;19.98;;
67528;SDS011;54366;51.980;5.856;2023-02-15T05:45:38;29.02;;;21.48;;
67528;SDS011;54366;51.980;5.856;2023-02-15T05:48:04;27.88;;;20.85;;
67528;SDS011;54366;51.980;5.856;2023-02-15T05:50:30;26.63;;;21.13;;
67528;SDS011;54366;51.980;5.856;2023-02-15T05:52:59;29.48;;;21.35;;
67528;SDS011;54366;51.980;5.856;2023-02-15T05:55:25;28.10;;;21.30;;
67528;SDS011;54366;51.980;5.856;2023-02-15T05:57:51;30.50;;;22.35;;
67528;SDS011;54366;51.980;5.856;2023-02-15T06:00:18;28.17;;;21.25;;
67528;SDS011;54366;51.980;5.856;2023-02-15T06:02:44;27.80;;;21.55;;
67528;SDS011;54366;51.980;5.856;2023-02-15T06:05:11;28.02;;;21.55;;
67528;SDS011;54366;51.980;5.856;2023-02-15T06:07:38;29.38;;;21.00;;
67528;SDS011;54366;51.980;5.856;2023-02-15T06:10:04;28.48;;;21.40;;
67528;SDS011;54366;51.980;5.856;2023-02-15T06:12:31;27.98;;;20.85;;
67528;SDS011;54366;51.980;5.856;2023-02-15T06:14:57;26.95;;;20.63;;
67528;SDS011;54366;51.980;5.856;2023-02-15T06:17:24;27.95;;;21.05;;
67528;SDS011;54366;51.980;5.856;2023-02-15T06:19:50;30.45;;;21.90;;
67528;SDS011;54366;51.980;5.856;2023-02-15T06:22:16;28.48;;;21.20;;
67528;SDS011;54366;51.980;5.856;2023-02-15T06:24:43;28.77;;;22.08;;
67528;SDS011;54366;51.980;5.856;2023-02-15T06:27:09;31.15;;;22.42;;
67528;SDS011;54366;51.980;5.856;2023-02-15T06:29:36;29.88;;;21.67;;
67528;SDS011;54366;51.980;5.856;2023-02-15T06:32:02;29.83;;;21.48;;
67528;SDS011;54366;51.980;5.856;2023-02-15T06:34:29;31.13;;;21.98;;
67528;SDS011;54366;51.980;5.856;2023-02-15T06:36:55;29.42;;;21.13;;
67528;SDS011;54366;51.980;5.856;2023-02-15T06:39:22;29.48;;;21.70;;
67528;SDS011;54366;51.980;5.856;2023-02-15T06:41:48;29.25;;;22.20;;
67528;SDS011;54366;51.980;5.856;2023-02-15T06:44:14;29.55;;;21.77;;
67528;SDS011;54366;51.980;5.856;2023-02-15T06:46:41;30.10;;;21.90;;
67528;SDS011;54366;51.980;5.856;2023-02-15T06:49:07;29.23;;;21.48;;
67528;SDS011;54366;51.980;5.856;2023-02-15T06:51:33;28.30;;;21.13;;
67528;SDS011;54366;51.980;5.856;2023-02-15T06:54:00;30.23;;;22.08;;
67528;SDS011;54366;51.980;5.856;2023-02-15T06:56:26;30.88;;;21.73;;
67528;SDS011;54366;51.980;5.856;2023-02-15T06:58:52;29.77;;;22.08;;
67528;SDS011;54366;51.980;5.856;2023-02-15T07:01:19;30.60;;;21.83;;
67528;SDS011;54366;51.980;5.856;2023-02-15T07:03:45;29.52;;;21.73;;
67528;SDS011;54366;51.980;5.856;2023-02-15T07:06:11;30.52;;;23.08;;
67528;SDS011;54366;51.980;5.856;2023-02-15T07:08:38;31.38;;;21.77;;
67528;SDS011;54366;51.980;5.856;2023-02-15T07:11:05;29.25;;;21.58;;
67528;SDS011;54366;51.980;5.856;2023-02-15T07:13:50;31.20;;;22.80;;
67528;SDS011;54366;51.980;5.856;2023-02-15T07:16:20;31.65;;;23.48;;
67528;SDS011;54366;51.980;5.856;2023-02-15T07:18:46;30.67;;;22.80;;
67528;SDS011;54366;51.980;5.856;2023-02-15T07:21:12;31.13;;;22.92;;
67528;SDS011;54366;51.980;5.856;2023-02-15T07:23:39;32.90;;;23.63;;
67528;SDS011;54366;51.980;5.856;2023-02-15T07:26:05;32.22;;;23.08;;
67528;SDS011;54366;51.980;5.856;2023-02-15T07:28:33;32.15;;;23.30;;
67528;SDS011;54366;51.980;5.856;2023-02-15T07:31:01;30.90;;;22.67;;
67528;SDS011;54366;51.980;5.856;2023-02-15T07:33:30;32.70;;;23.40;;
67528;SDS011;54366;51.980;5.856;2023-02-15T07:35:57;33.13;;;23.27;;
67528;SDS011;54366;51.980;5.856;2023-02-15T07:38:25;35.10;;;24.17;;
67528;SDS011;54366;51.980;5.856;2023-02-15T07:40:59;30.95;;;21.92;;
67528;SDS011;54366;51.980;5.856;2023-02-15T07:43:32;31.23;;;22.73;;
67528;SDS011;54366;51.980;5.856;2023-02-15T07:46:00;31.30;;;22.85;;
67528;SDS011;54366;51.980;5.856;2023-02-15T07:48:27;31.13;;;23.35;;
67528;SDS011;54366;51.980;5.856;2023-02-15T07:50:53;33.28;;;23.98;;
67528;SDS011;54366;51.980;5.856;2023-02-15T07:53:20;32.88;;;23.55;;
67528;SDS011;54366;51.980;5.856;2023-02-15T07:55:46;34.17;;;24.38;;
67528;SDS011;54366;51.980;5.856;2023-02-15T07:58:12;33.15;;;24.30;;
67528;SDS011;54366;51.980;5.856;2023-02-15T08:00:38;32.90;;;24.30;;
67528;SDS011;54366;51.980;5.856;2023-02-15T08:03:24;33.60;;;23.90;;
67528;SDS011;54366;51.980;5.856;2023-02-15T08:05:58;31.08;;;22.60;;
67528;SDS011;54366;51.980;5.856;2023-02-15T08:08:28;34.30;;;24.80;;
67528;SDS011;54366;51.980;5.856;2023-02-15T08:11:01;34.65;;;24.10;;
67528;SDS011;54366;51.980;5.856;2023-02-15T08:13:52;34.55;;;25.20;;
67528;SDS011;54366;51.980;5.856;2023-02-15T08:16:35;37.72;;;26.10;;
67528;SDS011;54366;51.980;5.856;2023-02-15T08:19:04;34.95;;;25.20;;
67528;SDS011;54366;51.980;5.856;2023-02-15T08:21:39;35.38;;;24.00;;
67528;SDS011;54366;51.980;5.856;2023-02-15T08:24:07;36.35;;;25.60;;
67528;SDS011;54366;51.980;5.856;2023-02-15T08:26:34;33.17;;;24.05;;
67528;SDS011;54366;51.980;5.856;2023-02-15T08:29:01;34.38;;;24.25;;
67528;SDS011;54366;51.980;5.856;2023-02-15T08:31:28;39.58;;;27.80;;
67528;SDS011;54366;51.980;5.856;2023-02-15T08:33:55;34.40;;;24.67;;
67528;SDS011;54366;51.980;5.856;2023-02-15T08:36:23;34.38;;;24.50;;
67528;SDS011;54366;51.980;5.856;2023-02-15T08:38:51;42.42;;;29.35;;
67528;SDS011;54366;51.980;5.856;2023-02-15T08:41:19;38.00;;;27.25;;
67528;SDS011;54366;51.980;5.856;2023-02-15T08:46:19;38.95;;;28.27;;
67528;SDS011;54366;51.980;5.856;2023-02-15T08:48:47;37.50;;;28.60;;
67528;SDS011;54366;51.980;5.856;2023-02-15T08:51:15;40.85;;;27.70;;
67528;SDS011;54366;51.980;5.856;2023-02-15T08:53:44;41.78;;;29.10;;
67528;SDS011;54366;51.980;5.856;2023-02-15T08:56:15;40.53;;;29.55;;
67528;SDS011;54366;51.980;5.856;2023-02-15T08:58:42;39.85;;;28.13;;
67528;SDS011;54366;51.980;5.856;2023-02-15T09:01:09;39.47;;;28.58;;
67528;SDS011;54366;51.980;5.856;2023-02-15T09:03:37;39.50;;;29.05;;
67528;SDS011;54366;51.980;5.856;2023-02-15T09:06:04;43.33;;;31.52;;
67528;SDS011;54366;51.980;5.856;2023-02-15T09:08:31;41.67;;;29.23;;
67528;SDS011;54366;51.980;5.856;2023-02-15T09:11:05;43.10;;;30.15;;
67528;SDS011;54366;51.980;5.856;2023-02-15T09:13:34;40.60;;;29.55;;
67528;SDS011;54366;51.980;5.856;2023-02-15T09:16:04;40.92;;;28.63;;
67528;SDS011;54366;51.980;5.856;2023-02-15T09:18:34;39.65;;;29.70;;
67528;SDS011;54366;51.980;5.856;2023-02-15T09:21:06;40.40;;;29.10;;
67528;SDS011;54366;51.980;5.856;2023-02-15T09:23:42;44.35;;;30.00;;
67528;SDS011;54366;51.980;5.856;2023-02-15T09:26:14;38.55;;;27.88;;
67528;SDS011;54366;51.980;5.856;2023-02-15T09:28:42;39.42;;;29.05;;
67528;SDS011;54366;51.980;5.856;2023-02-15T09:31:16;39.70;;;28.85;;
67528;SDS011;54366;51.980;5.856;2023-02-15T09:33:45;40.13;;;28.33;;
67528;SDS011;54366;51.980;5.856;2023-02-15T09:36:19;37.72;;;27.70;;
67528;SDS011;54366;51.980;5.856;2023-02-15T09:38:52;38.75;;;28.15;;
67528;SDS011;54366;51.980;5.856;2023-02-15T09:41:34;37.22;;;28.13;;
67528;SDS011;54366;51.980;5.856;2023-02-15T09:44:28;40.10;;;29.30;;
67528;SDS011;54366;51.980;5.856;2023-02-15T09:51:02;37.00;;;27.85;;
67528;SDS011;54366;51.980;5.856;2023-02-15T09:54:03;38.88;;;27.63;;
67528;SDS011;54366;51.980;5.856;2023-02-15T09:57:04;37.83;;;28.75;;
67528;SDS011;54366;51.980;5.856;2023-02-15T09:59:52;40.90;;;29.80;;
67528;SDS011;54366;51.980;5.856;2023-02-15T10:03:07;38.30;;;28.30;;
67528;SDS011;54366;51.980;5.856;2023-02-15T10:06:54;38.33;;;28.65;;
67528;SDS011;54366;51.980;5.856;2023-02-15T10:09:19;40.10;;;28.38;;
67528;SDS011;54366;51.980;5.856;2023-02-15T10:21:30;39.22;;;28.85;;
67528;SDS011;54366;51.980;5.856;2023-02-15T10:24:24;37.20;;;28.63;;
67528;SDS011;54366;51.980;5.856;2023-02-15T10:27:17;37.92;;;28.60;;
67528;SDS011;54366;51.980;5.856;2023-02-15T10:30:31;37.53;;;27.55;;
67528;SDS011;54366;51.980;5.856;2023-02-15T10:32:41;36.10;;;27.27;;
67528;SDS011;54366;51.980;5.856;2023-02-15T10:35:44;35.08;;;26.77;;
67528;SDS011;54366;51.980;5.856;2023-02-15T10:38:38;33.45;;;25.80;;
67528;SDS011;54366;51.980;5.856;2023-02-15T10:41:15;33.78;;;25.30;;
67528;SDS011;54366;51.980;5.856;2023-02-15T10:44:12;32.67;;;24.73;;
67528;SDS011;54366;51.980;5.856;2023-02-15T10:50:20;33.67;;;25.15;;
67528;SDS011;54366;51.980;5.856;2023-02-15T10:53:08;34.75;;;25.30;;
67528;SDS011;54366;51.980;5.856;2023-02-15T10:55:51;34.70;;;25.77;;
67528;SDS011;54366;51.980;5.856;2023-02-15T10:58:41;38.20;;;26.83;;
67528;SDS011;54366;51.980;5.856;2023-02-15T11:01:49;35.40;;;26.90;;
67528;SDS011;54366;51.980;5.856;2023-02-15T11:04:39;37.58;;;26.90;;
67528;SDS011;54366;51.980;5.856;2023-02-15T11:07:22;37.17;;;25.98;;
67528;SDS011;54366;51.980;5.856;2023-02-15T11:10:01;34.72;;;26.13;;
67528;SDS011;54366;51.980;5.856;2023-02-15T11:12:47;35.10;;;25.75;;
67528;SDS011;54366;51.980;5.856;2023-02-15T11:15:16;32.22;;;24.42;;
67528;SDS011;54366;51.980;5.856;2023-02-15T11:18:25;32.40;;;24.42;;
67528;SDS011;54366;51.980;5.856;2023-02-15T11:23:53;32.67;;;25.38;;
67528;SDS011;54366;51.980;5.856;2023-02-15T11:26:24;33.50;;;25.20;;
67528;SDS011;54366;51.980;5.856;2023-02-15T11:29:02;32.50;;;24.27;;
67528;SDS011;54366;51.980;5.856;2023-02-15T11:31:46;33.10;;;24.85;;
67528;SDS011;54366;51.980;5.856;2023-02-15T11:34:20;31.27;;;24.23;;
67528;SDS011;54366;51.980;5.856;2023-02-15T11:36:55;34.95;;;27.63;;
67528;SDS011;54366;51.980;5.856;2023-02-15T11:39:27;32.72;;;25.20;;
67528;SDS011;54366;51.980;5.856;2023-02-15T11:41:59;35.53;;;27.10;;
67528;SDS011;54366;51.980;5.856;2023-02-15T11:44:32;33.97;;;25.10;;
67528;SDS011;54366;51.980;5.856;2023-02-15T11:47:11;31.27;;;23.80;;
67528;SDS011;54366;51.980;5.856;2023-02-15T11:49:38;31.35;;;24.77;;
67528;SDS011;54366;51.980;5.856;2023-02-15T11:52:05;32.70;;;24.70;;
67528;SDS011;54366;51.980;5.856;2023-02-15T11:54:39;36.22;;;26.80;;
67528;SDS011;54366;51.980;5.856;2023-02-15T11:57:17;35.60;;;26.45;;
67528;SDS011;54366;51.980;5.856;2023-02-15T11:59:56;33.53;;;24.80;;
67528;SDS011;54366;51.980;5.856;2023-02-15T12:02:33;32.60;;;24.27;;
67528;SDS011;54366;51.980;5.856;2023-02-15T12:05:03;32.85;;;24.90;;
67528;SDS011;54366;51.980;5.856;2023-02-15T12:07:37;33.47;;;25.92;;
67528;SDS011;54366;51.980;5.856;2023-02-15T12:10:31;30.80;;;24.50;;
67528;SDS011;54366;51.980;5.856;2023-02-15T12:13:09;31.55;;;24.92;;
67528;SDS011;54366;51.980;5.856;2023-02-15T12:15:47;30.77;;;23.50;;
67528;SDS011;54366;51.980;5.856;2023-02-15T12:18:38;34.92;;;26.80;;
67528;SDS011;54366;51.980;5.856;2023-02-15T12:21:08;37.15;;;26.25;;
67528;SDS011;54366;51.980;5.856;2023-02-15T12:23:58;33.95;;;25.35;;
67528;SDS011;54366;51.980;5.856;2023-02-15T12:26:33;33.40;;;25.30;;
67528;SDS011;54366;51.980;5.856;2023-02-15T12:29:02;35.13;;;26.83;;
67528;SDS011;54366;51.980;5.856;2023-02-15T12:31:40;34.55;;;26.02;;
67528;SDS011;54366;51.980;5.856;2023-02-15T12:34:12;34.10;;;26.45;;
67528;SDS011;54366;51.980;5.856;2023-02-15T12:37:01;33.83;;;24.67;;
67528;SDS011;54366;51.980;5.856;2023-02-15T12:42:08;33.92;;;25.95;;
67528;SDS011;54366;51.980;5.856;2023-02-15T12:44:52;30.92;;;24.38;;
67528;SDS011;54366;51.980;5.856;2023-02-15T12:47:23;35.33;;;25.80;;
67528;SDS011;54366;51.980;5.856;2023-02-15T12:50:14;33.25;;;25.77;;
67528;SDS011;54366;51.980;5.856;2023-02-15T12:52:48;32.65;;;25.55;;
67528;SDS011;54366;51.980;5.856;2023-02-15T12:55:23;34.35;;;26.95;;
67528;SDS011;54366;51.980;5.856;2023-02-15T12:58:12;33.30;;;26.67;;
67528;SDS011;54366;51.980;5.856;2023-02-15T13:01:10;32.45;;;26.40;;
67528;SDS011;54366;51.980;5.856;2023-02-15T13:04:00;34.75;;;26.15;;
67528;SDS011;54366;51.980;5.856;2023-02-15T13:06:29;36.45;;;27.25;;
67528;SDS011;54366;51.980;5.856;2023-02-15T13:09:42;32.20;;;26.40;;
67528;SDS011;54366;51.980;5.856;2023-02-15T13:14:53;31.13;;;23.98;;
67528;SDS011;54366;51.980;5.856;2023-02-15T13:17:24;30.95;;;24.60;;
67528;SDS011;54366;51.980;5.856;2023-02-15T13:22:48;37.70;;;26.25;;
67528;SDS011;54366;51.980;5.856;2023-02-15T13:25:19;33.10;;;26.00;;
67528;SDS011;54366;51.980;5.856;2023-02-15T13:27:50;32.17;;;25.80;;
67528;SDS011;54366;51.980;5.856;2023-02-15T13:30:24;35.20;;;26.33;;
67528;SDS011;54366;51.980;5.856;2023-02-15T13:32:59;31.25;;;25.40;;
67528;SDS011;54366;51.980;5.856;2023-02-15T13:35:33;33.03;;;25.25;;
67528;SDS011;54366;51.980;5.856;2023-02-15T13:38:22;31.25;;;25.63;;
67528;SDS011;54366;51.980;5.856;2023-02-15T13:41:13;31.75;;;25.92;;
67528;SDS011;54366;51.980;5.856;2023-02-15T13:44:10;32.25;;;24.48;;
67528;SDS011;54366;51.980;5.856;2023-02-15T13:49:55;31.95;;;24.63;;
67528;SDS011;54366;51.980;5.856;2023-02-15T13:55:51;32.90;;;24.75;;
67528;SDS011;54366;51.980;5.856;2023-02-15T14:01:53;28.02;;;22.35;;
67528;SDS011;54366;51.980;5.856;2023-02-15T14:04:57;30.88;;;22.92;;
67528;SDS011;54366;51.980;5.856;2023-02-15T14:11:07;30.67;;;22.92;;
67528;SDS011;54366;51.980;5.856;2023-02-15T14:19:49;26.35;;;19.98;;
67528;SDS011;54366;51.980;5.856;2023-02-15T14:22:35;30.45;;;22.63;;
67528;SDS011;54366;51.980;5.856;2023-02-15T14:25:18;32.00;;;24.50;;
67528;SDS011;54366;51.980;5.856;2023-02-15T14:28:02;30.73;;;24.02;;
67528;SDS011;54366;51.980;5.856;2023-02-15T14:30:36;29.02;;;23.23;;
67528;SDS011;54366;51.980;5.856;2023-02-15T14:33:10;29.35;;;23.15;;
67528;SDS011;54366;51.980;5.856;2023-02-15T14:35:58;29.63;;;22.90;;
67528;SDS011;54366;51.980;5.856;2023-02-15T14:38:37;31.95;;;23.90;;
67528;SDS011;54366;51.980;5.856;2023-02-15T14:41:29;31.08;;;24.17;;
67528;SDS011;54366;51.980;5.856;2023-02-15T14:44:32;28.98;;;23.23;;
67528;SDS011;54366;51.980;5.856;2023-02-15T14:47:13;29.27;;;23.00;;
67528;SDS011;54366;51.980;5.856;2023-02-15T14:58:57;32.65;;;24.88;;
67528;SDS011;54366;51.980;5.856;2023-02-15T15:01:26;31.38;;;23.70;;
67528;SDS011;54366;51.980;5.856;2023-02-15T15:04:02;28.55;;;23.00;;
67528;SDS011;54366;51.980;5.856;2023-02-15T15:06:35;29.60;;;23.25;;
67528;SDS011;54366;51.980;5.856;2023-02-15T15:09:12;31.90;;;24.88;;
67528;SDS011;54366;51.980;5.856;2023-02-15T15:11:49;33.60;;;25.08;;
67528;SDS011;54366;51.980;5.856;2023-02-15T15:20:39;32.88;;;25.02;;
67528;SDS011;54366;51.980;5.856;2023-02-15T15:26:22;29.83;;;23.15;;
67528;SDS011;54366;51.980;5.856;2023-02-15T15:31:39;33.17;;;24.98;;
67528;SDS011;54366;51.980;5.856;2023-02-15T15:37:46;30.90;;;23.85;;
67528;SDS011;54366;51.980;5.856;2023-02-15T15:43:55;32.88;;;25.60;;
67528;SDS011;54366;51.980;5.856;2023-02-15T15:49:47;32.08;;;24.88;;
67528;SDS011;54366;51.980;5.856;2023-02-15T15:52:14;30.80;;;24.95;;
67528;SDS011;54366;51.980;5.856;2023-02-15T15:54:46;31.42;;;24.45;;
67528;SDS011;54366;51.980;5.856;2023-02-15T15:57:31;34.92;;;25.98;;
67528;SDS011;54366;51.980;5.856;2023-02-15T16:00:00;31.27;;;24.73;;
67528;SDS011;54366;51.980;5.856;2023-02-15T16:02:49;32.90;;;25.75;;
67528;SDS011;54366;51.980;5.856;2023-02-15T16:05:16;34.28;;;26.10;;
67528;SDS011;54366;51.980;5.856;2023-02-15T16:07:42;35.15;;;25.63;;
67528;SDS011;54366;51.980;5.856;2023-02-15T16:10:19;33.45;;;24.70;;
67528;SDS011;54366;51.980;5.856;2023-02-15T16:13:06;27.85;;;21.83;;
67528;SDS011;54366;51.980;5.856;2023-02-15T16:15:49;30.70;;;24.38;;
67528;SDS011;54366;51.980;5.856;2023-02-15T16:18:24;38.25;;;27.92;;
67528;SDS011;54366;51.980;5.856;2023-02-15T16:20:55;37.10;;;27.98;;
67528;SDS011;54366;51.980;5.856;2023-02-15T16:26:49;40.35;;;29.48;;
67528;SDS011;54366;51.980;5.856;2023-02-15T16:29:38;36.47;;;27.58;;
67528;SDS011;54366;51.980;5.856;2023-02-15T16:32:06;39.20;;;29.88;;
67528;SDS011;54366;51.980;5.856;2023-02-15T16:35:02;40.40;;;29.27;;
67528;SDS011;54366;51.980;5.856;2023-02-15T16:37:34;36.20;;;28.20;;
67528;SDS011;54366;51.980;5.856;2023-02-15T16:40:02;36.10;;;26.95;;
67528;SDS011;54366;51.980;5.856;2023-02-15T16:42:28;36.78;;;28.10;;
67528;SDS011;54366;51.980;5.856;2023-02-15T16:45:00;37.38;;;27.65;;
67528;SDS011;54366;51.980;5.856;2023-02-15T16:47:33;36.38;;;27.98;;
67528;SDS011;54366;51.980;5.856;2023-02-15T16:50:06;38.58;;;28.80;;
67528;SDS011;54366;51.980;5.856;2023-02-15T16:52:42;38.20;;;28.58;;
67528;SDS011;54366;51.980;5.856;2023-02-15T16:55:22;38.20;;;27.85;;